Terminal Aerodrome Forecast
Issued by NWS Buffalo, NY

Home | Current Version | Previous Version | Text Only | Print | Product List | Glossary On
Versions: 1 2 3 4 5 6 7 8 9 10 11 12 13 14 15 16 17 18 19 20 21 22 23 24 25 26 27 28
000
FTUS41 KBUF 252324
TAFBUF
TAF
KBUF 252324Z 2600/2624 24013KT P6SM SCT060 BKN090
     FM260100 25009KT P6SM VCSH SCT060 BKN110
     FM260600 26007KT P6SM BKN100
     FM261100 24007KT P6SM VCSH BKN070
     FM261300 24010G18KT P6SM VCSH OVC090=

USA.gov is the U.S. government's official web portal to all federal, state and local government web resources and services.